Time;durP1;ratioP1;P1;durP2;ratioP2;P2;SDS_P1;SDS_P2;PMS_P1;PMS_P2;Temp;Humidity;BMP_temperature;BMP_pressure;BME280_temperature;BME280_humidity;BME280_pressure;Samples;Min_cycle;Max_cycle;Signal;HPM_P1;HPM_P2
2021/05/16 00:00:36;;;;;;;5.57;5.17;;;9.90;99.90;;;;;;5081068;28;20259;-50
2021/05/16 00:03:04;;;;;;;5.67;5.27;;;9.90;99.90;;;;;;5074463;28;20659;-55
2021/05/16 00:05:31;;;;;;;5.00;4.60;;;9.90;99.90;;;;;;5080084;28;20233;-48
2021/05/16 00:07:57;;;;;;;6.00;4.87;;;9.80;99.90;;;;;;5081448;28;20206;-53
2021/05/16 00:10:25;;;;;;;5.27;4.80;;;9.80;99.90;;;;;;5064132;28;20190;-49
2021/05/16 00:12:52;;;;;;;5.83;5.33;;;9.80;99.90;;;;;;5082077;28;20198;-50
2021/05/16 00:15:21;;;;;;;4.80;4.40;;;9.70;99.90;;;;;;5078640;28;20206;-48
2021/05/16 00:17:48;;;;;;;5.10;4.70;;;9.70;99.90;;;;;;5075216;28;20593;-46
2021/05/16 00:20:17;;;;;;;6.07;5.33;;;9.70;99.90;;;;;;5077865;28;20190;-51
2021/05/16 00:22:43;;;;;;;6.33;5.70;;;9.70;99.90;;;;;;5083204;28;20197;-47
2021/05/16 00:25:13;;;;;;;6.60;5.77;;;9.60;99.90;;;;;;5072044;28;20209;-48
2021/05/16 00:27:40;;;;;;;7.83;5.93;;;9.60;99.90;;;;;;5085354;28;20244;-47
2021/05/16 00:30:09;;;;;;;6.33;5.40;;;9.50;99.90;;;;;;5083434;28;20190;-50
2021/05/16 00:32:36;;;;;;;6.20;5.60;;;9.40;99.90;;;;;;5085046;28;20202;-46
2021/05/16 00:35:02;;;;;;;6.37;5.87;;;9.40;99.90;;;;;;5075580;28;20240;-51
2021/05/16 00:37:29;;;;;;;5.93;5.43;;;9.40;99.90;;;;;;5083857;28;20194;-49
2021/05/16 00:39:57;;;;;;;7.27;6.57;;;9.30;99.90;;;;;;5084464;28;20190;-51
2021/05/16 00:42:23;;;;;;;6.63;6.03;;;9.30;99.90;;;;;;5071614;28;20898;-48
2021/05/16 00:45:00;;;;;;;7.73;6.27;;;9.20;99.90;;;;;;5085851;28;20213;-49
2021/05/16 00:47:26;;;;;;;6.43;5.87;;;9.30;99.90;;;;;;5083211;28;20288;-50
2021/05/16 00:49:54;;;;;;;6.70;6.00;;;9.20;99.90;;;;;;5076681;28;20210;-51
2021/05/16 00:52:22;;;;;;;7.20;6.60;;;9.20;99.90;;;;;;5075223;28;20206;-50
2021/05/16 00:54:49;;;;;;;6.40;5.90;;;9.30;99.90;;;;;;5084822;28;20213;-49
2021/05/16 00:57:16;;;;;;;6.60;6.00;;;9.20;99.90;;;;;;5066710;28;20260;-47
2021/05/16 00:59:43;;;;;;;6.93;6.30;;;9.20;99.90;;;;;;5085552;28;20205;-48
2021/05/16 01:02:09;;;;;;;7.43;6.23;;;9.20;99.90;;;;;;5081217;28;20639;-49
2021/05/16 01:04:37;;;;;;;6.90;6.20;;;9.20;99.90;;;;;;5090845;28;20236;-48
2021/05/16 01:07:03;;;;;;;6.37;5.87;;;9.20;99.90;;;;;;5082615;28;20194;-49
2021/05/16 01:09:30;;;;;;;6.93;5.90;;;9.20;99.90;;;;;;5081641;28;20244;-49
2021/05/16 01:11:59;;;;;;;6.50;5.93;;;9.20;99.90;;;;;;5083870;28;20190;-49
2021/05/16 01:14:30;;;;;;;7.37;6.00;;;9.20;99.90;;;;;;5072421;28;20311;-49
2021/05/16 01:16:57;;;;;;;6.47;5.87;;;9.20;99.90;;;;;;5083466;28;20230;-48
2021/05/16 01:19:24;;;;;;;7.37;6.10;;;9.20;99.90;;;;;;5073775;28;21854;-48
2021/05/16 01:21:54;;;;;;;6.00;5.50;;;9.30;99.90;;;;;;5084603;28;20186;-47
2021/05/16 01:24:21;;;;;;;5.67;5.23;;;9.30;99.90;;;;;;5081513;28;20405;-47
2021/05/16 01:26:58;;;;;;;5.73;5.23;;;9.30;99.90;;;;;;5083624;28;20194;-50
2021/05/16 01:29:25;;;;;;;6.17;5.57;;;9.30;99.90;;;;;;5067647;28;20225;-48
2021/05/16 01:31:51;;;;;;;5.80;5.30;;;9.30;99.90;;;;;;5084042;28;20248;-47
2021/05/16 01:34:17;;;;;;;6.50;5.90;;;9.20;99.90;;;;;;5073984;28;20235;-48
2021/05/16 01:36:43;;;;;;;7.33;6.63;;;9.20;99.90;;;;;;5083887;28;20320;-48
2021/05/16 01:39:13;;;;;;;5.97;5.47;;;9.20;99.90;;;;;;5081575;28;20196;-46
2021/05/16 01:41:40;;;;;;;6.63;6.00;;;9.20;99.90;;;;;;5083313;28;20194;-47
2021/05/16 01:44:07;;;;;;;7.00;6.40;;;9.10;99.90;;;;;;5074223;28;20319;-48
2021/05/16 01:46:33;;;;;;;5.77;5.27;;;9.10;99.90;;;;;;5078913;28;20194;-46
2021/05/16 01:48:59;;;;;;;6.37;5.80;;;9.20;99.90;;;;;;5083639;28;20267;-46
2021/05/16 01:51:26;;;;;;;6.17;5.67;;;9.20;99.90;;;;;;5073288;28;20283;-46
2021/05/16 01:53:52;;;;;;;8.07;5.80;;;9.20;99.90;;;;;;5085177;28;20201;-46
2021/05/16 01:56:22;;;;;;;6.40;5.80;;;9.20;99.90;;;;;;5080919;28;20190;-49
2021/05/16 01:58:49;;;;;;;5.80;5.30;;;9.20;99.90;;;;;;5084264;28;20586;-47
2021/05/16 02:01:16;;;;;;;6.47;5.87;;;9.20;99.90;;;;;;5066590;28;20198;-49
2021/05/16 02:03:49;;;;;;;5.93;5.43;;;9.20;99.90;;;;;;5083211;28;20243;-49
2021/05/16 02:06:17;;;;;;;6.07;5.57;;;9.20;99.90;;;;;;5074221;28;20202;-45
2021/05/16 02:08:45;;;;;;;5.57;5.17;;;9.20;99.90;;;;;;5083476;28;20297;-49
2021/05/16 02:11:17;;;;;;;5.53;5.03;;;9.20;99.90;;;;;;5080682;28;20190;-48
2021/05/16 02:13:51;;;;;;;5.30;4.80;;;9.20;99.90;;;;;;5117434;27;20224;-47
2021/05/16 02:16:18;;;;;;;5.63;5.13;;;9.20;99.90;;;;;;5066689;28;20228;-44
2021/05/16 02:18:48;;;;;;;5.87;5.47;;;9.30;99.90;;;;;;5083933;28;20610;-50
2021/05/16 02:21:22;;;;;;;6.30;5.40;;;9.30;99.90;;;;;;5077674;28;20277;-51
2021/05/16 02:23:48;;;;;;;6.03;5.53;;;9.30;99.90;;;;;;5082299;28;20229;-51
2021/05/16 02:26:23;;;;;;;6.60;5.00;;;9.30;99.90;;;;;;5079886;28;20255;-45
2021/05/16 02:28:50;;;;;;;6.53;5.67;;;9.30;99.90;;;;;;5083618;28;20218;-47
2021/05/16 02:31:19;;;;;;;5.70;4.97;;;9.30;99.90;;;;;;5063344;28;20198;-46
2021/05/16 02:33:47;;;;;;;5.70;5.30;;;9.30;99.90;;;;;;5084227;28;20197;-49
2021/05/16 02:36:13;;;;;;;5.97;5.47;;;9.30;99.90;;;;;;5074528;28;20224;-51
2021/05/16 02:38:41;;;;;;;6.20;5.70;;;9.30;99.90;;;;;;5093188;28;20289;-50
2021/05/16 02:41:07;;;;;;;6.40;5.73;;;9.30;99.90;;;;;;5080407;28;20747;-50
2021/05/16 02:43:33;;;;;;;6.30;5.73;;;9.30;99.90;;;;;;5076884;28;20187;-51
2021/05/16 02:46:00;;;;;;;6.80;5.57;;;9.30;99.90;;;;;;5066665;28;20198;-54
2021/05/16 02:48:27;;;;;;;5.10;4.70;;;9.30;99.90;;;;;;5071326;28;20217;-47
2021/05/16 02:50:53;;;;;;;5.93;5.37;;;9.30;99.90;;;;;;5082184;28;20872;-49
2021/05/16 02:53:26;;;;;;;5.67;5.27;;;9.30;99.90;;;;;;5075171;28;20201;-47
2021/05/16 02:55:59;;;;;;;7.17;5.57;;;9.30;99.90;;;;;;5082608;28;20289;-52
2021/05/16 02:58:25;;;;;;;6.37;5.87;;;9.30;99.90;;;;;;5080143;28;20967;-48
2021/05/16 03:00:55;;;;;;;5.80;5.30;;;9.30;99.90;;;;;;5080642;28;20198;-53
2021/05/16 03:03:23;;;;;;;5.77;5.27;;;9.30;99.90;;;;;;5065240;28;20202;-50
2021/05/16 03:05:53;;;;;;;6.07;5.57;;;9.30;99.90;;;;;;5081140;28;20221;-48
2021/05/16 03:08:22;;;;;;;5.00;4.60;;;9.30;99.90;;;;;;5072056;28;20323;-47
2021/05/16 03:10:48;;;;;;;5.93;5.43;;;9.30;99.90;;;;;;5083459;28;20194;-49
2021/05/16 03:13:15;;;;;;;5.73;5.20;;;9.30;99.90;;;;;;5078790;28;20243;-51
2021/05/16 03:15:42;;;;;;;6.07;5.57;;;9.20;99.90;;;;;;5081714;28;20214;-47
2021/05/16 03:18:08;;;;;;;5.97;5.40;;;9.20;99.90;;;;;;5067000;28;20285;-52
2021/05/16 03:20:37;;;;;;;6.30;5.70;;;9.20;99.90;;;;;;5079199;28;20194;-47
2021/05/16 03:23:03;;;;;;;6.10;5.60;;;9.20;99.90;;;;;;5075330;28;20247;-53
2021/05/16 03:25:34;;;;;;;6.23;5.60;;;9.20;99.90;;;;;;5079857;28;20995;-50
2021/05/16 03:28:00;;;;;;;6.23;5.73;;;9.20;99.90;;;;;;5078507;28;20218;-53
2021/05/16 03:30:26;;;;;;;5.73;4.80;;;9.20;99.90;;;;;;5079166;28;20190;-48
2021/05/16 03:32:53;;;;;;;5.33;4.93;;;9.20;99.90;;;;;;5082904;28;20193;-47
2021/05/16 03:35:19;;;;;;;6.33;5.83;;;9.20;99.90;;;;;;5064446;28;20214;-53
2021/05/16 03:37:46;;;;;;;5.67;5.17;;;9.20;99.90;;;;;;5073458;28;20191;-47
2021/05/16 03:40:13;;;;;;;5.40;5.00;;;9.30;99.90;;;;;;5079018;28;20659;-54
2021/05/16 03:42:39;;;;;;;5.40;5.00;;;9.20;99.90;;;;;;5082920;28;20209;-47
2021/05/16 03:45:08;;;;;;;5.30;4.90;;;9.30;99.90;;;;;;5077981;28;20236;-49
2021/05/16 03:47:34;;;;;;;5.67;5.10;;;9.20;99.90;;;;;;5061262;28;20194;-48
2021/05/16 03:50:01;;;;;;;6.03;5.13;;;9.20;99.90;;;;;;5064923;28;20303;-52
2021/05/16 03:52:27;;;;;;;5.60;5.20;;;9.20;99.90;;;;;;5072908;28;23207;-46
2021/05/16 03:54:54;;;;;;;6.00;5.40;;;9.20;99.90;;;;;;5082693;28;20757;-48
2021/05/16 03:57:22;;;;;;;5.87;5.20;;;9.20;99.90;;;;;;5078768;28;20198;-49
2021/05/16 03:59:49;;;;;;;5.77;5.27;;;9.20;99.90;;;;;;5082330;28;20195;-49
2021/05/16 04:02:15;;;;;;;5.23;4.80;;;9.20;99.90;;;;;;5078715;28;20272;-46
2021/05/16 04:04:41;;;;;;;5.30;4.57;;;9.20;99.90;;;;;;5068799;28;20218;-46
2021/05/16 04:07:08;;;;;;;5.90;5.33;;;9.20;99.90;;;;;;5077640;28;20198;-55
2021/05/16 04:09:34;;;;;;;5.13;4.73;;;9.20;99.90;;;;;;5074877;28;20205;-49
2021/05/16 04:12:02;;;;;;;6.20;5.30;;;9.20;99.90;;;;;;5081463;28;20679;-51
2021/05/16 04:14:28;;;;;;;6.70;5.73;;;9.20;99.90;;;;;;5079615;28;20206;-51
2021/05/16 04:16:55;;;;;;;5.87;5.10;;;9.20;99.90;;;;;;5082468;28;20222;-50
2021/05/16 04:19:21;;;;;;;5.67;5.20;;;9.20;99.90;;;;;;5064390;28;20282;-46
2021/05/16 04:21:47;;;;;;;6.67;5.27;;;9.20;99.90;;;;;;5082487;28;20221;-51
2021/05/16 04:24:14;;;;;;;5.40;5.00;;;9.20;99.90;;;;;;5072531;28;20222;-52
2021/05/16 04:26:40;;;;;;;5.60;5.10;;;9.30;99.90;;;;;;5082052;28;20208;-49
2021/05/16 04:29:07;;;;;;;5.43;4.87;;;9.30;99.90;;;;;;5079211;28;20895;-51
2021/05/16 04:31:34;;;;;;;5.40;5.00;;;9.30;99.90;;;;;;5081268;28;20185;-48
2021/05/16 04:34:00;;;;;;;6.50;5.27;;;9.30;99.90;;;;;;5081129;28;20214;-52
2021/05/16 04:36:26;;;;;;;5.90;5.30;;;9.40;99.90;;;;;;5065862;28;20263;-47
2021/05/16 04:38:52;;;;;;;6.03;4.87;;;9.40;99.90;;;;;;5075261;28;20271;-46
2021/05/16 04:41:19;;;;;;;5.40;4.53;;;9.40;99.90;;;;;;5076871;28;20239;-45
2021/05/16 04:43:45;;;;;;;5.10;4.60;;;9.40;99.90;;;;;;5079854;28;20224;-50
2021/05/16 04:46:13;;;;;;;5.27;4.87;;;9.50;99.90;;;;;;5078910;28;20281;-52
2021/05/16 04:48:39;;;;;;;4.73;4.43;;;9.50;99.90;;;;;;5081394;28;20267;-51
2021/05/16 04:51:06;;;;;;;5.30;4.90;;;9.50;99.90;;;;;;5066218;28;20264;-51
2021/05/16 04:53:34;;;;;;;5.30;4.80;;;9.60;99.90;;;;;;5080455;28;20198;-47
2021/05/16 04:56:00;;;;;;;4.90;4.60;;;9.60;99.90;;;;;;5077825;28;20209;-52
2021/05/16 04:58:27;;;;;;;5.67;5.17;;;9.60;99.90;;;;;;5079503;28;20182;-47
2021/05/16 05:00:53;;;;;;;4.47;4.07;;;9.70;99.90;;;;;;5080781;28;20194;-46
2021/05/16 05:03:21;;;;;;;5.10;4.60;;;9.70;99.90;;;;;;5075465;28;20297;-50
2021/05/16 05:05:48;;;;;;;4.53;4.23;;;9.70;99.90;;;;;;5063104;28;20231;-47
2021/05/16 05:08:14;;;;;;;4.33;4.00;;;9.80;99.90;;;;;;5076673;28;20281;-48
2021/05/16 05:10:40;;;;;;;4.40;4.10;;;9.90;99.90;;;;;;5077943;28;20194;-49
2021/05/16 05:13:06;;;;;;;4.83;4.30;;;9.90;99.90;;;;;;5081523;28;20203;-50
2021/05/16 05:15:32;;;;;;;4.70;4.30;;;9.90;99.90;;;;;;5085942;28;20206;-50
2021/05/16 05:17:58;;;;;;;4.63;4.23;;;9.90;99.90;;;;;;5082810;28;20244;-53
2021/05/16 05:20:25;;;;;;;3.93;3.53;;;10.00;99.90;;;;;;5084309;28;20186;-50
2021/05/16 05:22:52;;;;;;;4.10;3.80;;;10.00;99.90;;;;;;5070557;28;20213;-49
2021/05/16 05:25:18;;;;;;;4.67;4.30;;;10.10;99.90;;;;;;5077574;28;21051;-49
2021/05/16 05:27:45;;;;;;;4.70;4.30;;;10.10;99.90;;;;;;5085312;28;20288;-49
2021/05/16 05:30:12;;;;;;;4.20;3.90;;;10.20;99.90;;;;;;5081120;28;20433;-50
2021/05/16 05:32:38;;;;;;;5.00;4.60;;;10.20;99.90;;;;;;5085072;28;20220;-48
2021/05/16 05:35:06;;;;;;;4.20;3.90;;;10.30;99.90;;;;;;5081581;28;20209;-53
2021/05/16 05:37:33;;;;;;;4.13;3.60;;;10.30;99.90;;;;;;5069043;28;20254;-48
2021/05/16 05:39:59;;;;;;;4.63;3.77;;;10.40;99.90;;;;;;5081488;28;20188;-53
2021/05/16 05:42:26;;;;;;;6.70;3.87;;;10.40;99.90;;;;;;5076949;28;20214;-48
2021/05/16 05:44:52;;;;;;;3.97;3.67;;;10.40;99.90;;;;;;5083506;28;20225;-51
2021/05/16 05:47:19;;;;;;;4.13;3.83;;;10.50;99.90;;;;;;5082666;28;20205;-51
2021/05/16 05:49:45;;;;;;;4.43;4.13;;;10.50;99.90;;;;;;5084523;28;20229;-50
2021/05/16 05:52:11;;;;;;;5.47;3.90;;;10.60;99.90;;;;;;5067028;28;20206;-49
2021/05/16 05:54:38;;;;;;;4.30;4.00;;;10.60;99.90;;;;;;5084659;28;20220;-51
2021/05/16 05:57:05;;;;;;;5.97;3.97;;;10.70;99.90;;;;;;5070604;28;20285;-52
2021/05/16 05:59:31;;;;;;;6.60;4.13;;;10.70;99.90;;;;;;5084407;28;20186;-47
2021/05/16 06:01:57;;;;;;;5.07;4.67;;;10.80;99.90;;;;;;5081778;28;20584;-53
2021/05/16 06:04:23;;;;;;;4.53;4.20;;;10.90;99.90;;;;;;5083212;28;20980;-49
2021/05/16 06:06:50;;;;;;;4.33;4.03;;;10.90;99.90;;;;;;5083141;28;20216;-50
2021/05/16 06:09:16;;;;;;;4.27;3.70;;;10.90;99.90;;;;;;5066882;28;20967;-45
2021/05/16 06:11:43;;;;;;;7.07;5.80;;;11.00;99.90;;;;;;5084190;28;20198;-48
2021/05/16 06:14:09;;;;;;;6.30;5.70;;;11.00;99.90;;;;;;5078455;28;20313;-49
2021/05/16 06:16:35;;;;;;;23.20;15.93;;;11.10;99.90;;;;;;5084208;28;20240;-47
2021/05/16 06:19:02;;;;;;;4.27;3.80;;;11.10;99.90;;;;;;5080496;28;20736;-51
2021/05/16 06:21:28;;;;;;;4.50;4.10;;;11.20;99.90;;;;;;5082755;28;20205;-51
2021/05/16 06:24:03;;;;;;;5.80;4.47;;;11.20;99.90;;;;;;5075240;28;20583;-51
2021/05/16 06:26:30;;;;;;;8.40;7.07;;;11.30;99.90;;;;;;5081549;28;20197;-48
2021/05/16 06:28:57;;;;;;;4.93;4.43;;;11.30;99.90;;;;;;5071008;28;20791;-50
2021/05/16 06:31:24;;;;;;;12.17;7.30;;;11.40;99.90;;;;;;5081783;28;21029;-46
2021/05/16 06:33:50;;;;;;;4.33;3.93;;;11.40;99.90;;;;;;5082811;28;20280;-51
2021/05/16 06:36:16;;;;;;;4.90;4.50;;;11.30;99.90;;;;;;5081132;28;20461;-51
2021/05/16 06:38:43;;;;;;;4.70;4.30;;;11.40;99.90;;;;;;5083579;28;20227;-46
2021/05/16 06:41:09;;;;;;;4.80;4.40;;;11.40;99.90;;;;;;5066128;28;20194;-48
2021/05/16 06:43:35;;;;;;;5.33;4.53;;;11.40;99.90;;;;;;5084012;28;20198;-49
2021/05/16 06:46:02;;;;;;;5.50;4.33;;;11.40;99.90;;;;;;5071624;28;20213;-53
2021/05/16 06:48:28;;;;;;;5.20;4.70;;;11.40;99.90;;;;;;5083265;28;20221;-48
2021/05/16 06:50:54;;;;;;;5.60;5.10;;;11.40;99.90;;;;;;5081167;28;20202;-53
2021/05/16 06:53:20;;;;;;;4.97;4.57;;;11.40;99.90;;;;;;5082162;28;20546;-47
2021/05/16 06:55:47;;;;;;;5.27;4.77;;;11.50;99.90;;;;;;5069303;28;20237;-53
2021/05/16 06:58:14;;;;;;;5.93;5.43;;;11.50;99.90;;;;;;5078846;28;20203;-54
2021/05/16 07:00:40;;;;;;;6.00;5.37;;;11.60;99.90;;;;;;5073110;28;20866;-46
2021/05/16 07:03:07;;;;;;;5.87;5.33;;;11.60;99.90;;;;;;5083059;28;20196;-49
2021/05/16 07:05:33;;;;;;;5.97;5.47;;;11.60;99.90;;;;;;5078309;28;20278;-48
2021/05/16 07:07:59;;;;;;;6.43;5.87;;;11.70;99.90;;;;;;5083443;28;20670;-49
2021/05/16 07:10:26;;;;;;;10.77;5.77;;;11.70;99.90;;;;;;5066547;28;20205;-48
2021/05/16 07:12:52;;;;;;;5.63;5.17;;;11.80;99.90;;;;;;5083106;28;20198;-50
2021/05/16 07:15:18;;;;;;;8.83;5.90;;;11.90;99.90;;;;;;5073082;28;20210;-49
2021/05/16 07:17:45;;;;;;;7.17;6.50;;;12.00;99.90;;;;;;5076687;28;20190;-50
2021/05/16 07:20:13;;;;;;;7.53;6.37;;;12.00;99.90;;;;;;5082309;28;20198;-51
2021/05/16 07:22:39;;;;;;;6.63;6.03;;;12.10;99.90;;;;;;5075915;28;20285;-49
2021/05/16 07:25:06;;;;;;;7.87;7.17;;;12.10;99.90;;;;;;5083073;28;20258;-50
2021/05/16 07:27:32;;;;;;;8.47;7.67;;;12.20;99.90;;;;;;5066521;28;20206;-49
2021/05/16 07:29:59;;;;;;;8.77;7.97;;;12.30;99.90;;;;;;5079566;28;20213;-50
2021/05/16 07:32:25;;;;;;;8.63;7.90;;;12.50;99.90;;;;;;5069024;28;20202;-48
2021/05/16 07:34:51;;;;;;;7.97;7.37;;;12.60;99.90;;;;;;5082566;28;20222;-49
2021/05/16 07:37:18;;;;;;;7.80;7.20;;;12.60;99.90;;;;;;5075400;28;20209;-49
2021/05/16 07:39:44;;;;;;;7.30;6.60;;;12.70;99.90;;;;;;5080355;28;20186;-47
2021/05/16 07:42:10;;;;;;;6.80;6.23;;;12.80;99.90;;;;;;5068984;28;20258;-49
2021/05/16 07:44:36;;;;;;;8.87;8.07;;;12.80;99.90;;;;;;5079218;28;20217;-48
2021/05/16 07:47:03;;;;;;;6.97;6.37;;;12.80;99.90;;;;;;5074099;28;20205;-51
2021/05/16 07:49:29;;;;;;;6.27;5.67;;;12.80;99.90;;;;;;5077928;28;20224;-51
2021/05/16 07:51:55;;;;;;;6.80;6.30;;;12.70;99.90;;;;;;5076837;28;20224;-50
2021/05/16 07:54:22;;;;;;;6.03;5.47;;;12.70;99.90;;;;;;5077871;28;20224;-51
2021/05/16 07:56:48;;;;;;;6.60;5.73;;;12.60;99.90;;;;;;5067965;28;20268;-47
2021/05/16 07:59:14;;;;;;;5.83;5.33;;;12.50;99.90;;;;;;5077709;28;20539;-52
2021/05/16 08:01:40;;;;;;;5.27;4.87;;;12.50;99.90;;;;;;5080222;28;20273;-49
2021/05/16 08:04:06;;;;;;;6.20;5.70;;;12.50;99.90;;;;;;5065848;28;20225;-49
2021/05/16 08:06:32;;;;;;;6.23;5.73;;;12.40;99.90;;;;;;5073203;28;20195;-50
2021/05/16 08:08:59;;;;;;;7.17;6.67;;;12.40;99.90;;;;;;5068722;28;20314;-48
2021/05/16 08:11:26;;;;;;;6.40;5.90;;;12.30;99.90;;;;;;5076298;28;20202;-49
2021/05/16 08:13:52;;;;;;;6.17;5.73;;;12.40;99.90;;;;;;5063044;28;20206;-50
2021/05/16 08:16:18;;;;;;;8.43;5.93;;;12.40;99.90;;;;;;5078606;28;20196;-49
2021/05/16 08:18:46;;;;;;;6.33;5.83;;;12.40;99.90;;;;;;5072269;28;20191;-50
2021/05/16 08:21:12;;;;;;;5.93;5.50;;;12.50;99.90;;;;;;5078507;28;20194;-47
2021/05/16 08:23:38;;;;;;;6.13;5.63;;;12.60;99.90;;;;;;5082068;28;20245;-47
2021/05/16 08:26:05;;;;;;;5.63;5.23;;;12.70;99.90;;;;;;5075730;28;20205;-52
2021/05/16 08:28:32;;;;;;;6.27;5.87;;;12.90;99.90;;;;;;5066940;28;20218;-46
2021/05/16 08:30:58;;;;;;;7.20;6.50;;;13.20;99.90;;;;;;5075738;28;20198;-52
2021/05/16 08:33:24;;;;;;;6.13;5.63;;;13.40;99.90;;;;;;5073867;28;20567;-46
2021/05/16 08:35:50;;;;;;;6.67;6.07;;;13.70;99.90;;;;;;5081913;28;20206;-45
2021/05/16 08:38:16;;;;;;;5.87;5.47;;;14.10;99.90;;;;;;5076972;28;20190;-46
2021/05/16 08:40:43;;;;;;;6.57;5.93;;;14.20;99.90;;;;;;5077307;28;20202;-47
2021/05/16 08:43:09;;;;;;;7.33;6.33;;;14.20;99.90;;;;;;5063969;28;20206;-48
2021/05/16 08:45:37;;;;;;;6.43;5.90;;;14.20;99.90;;;;;;5078387;28;20229;-49
2021/05/16 08:48:04;;;;;;;5.67;5.07;;;14.10;99.90;;;;;;5083821;28;20194;-51
2021/05/16 08:50:30;;;;;;;6.40;5.47;;;14.10;99.90;;;;;;5074720;28;20202;-46
2021/05/16 08:52:57;;;;;;;5.77;5.37;;;14.10;99.90;;;;;;5083978;28;20205;-50
2021/05/16 08:55:23;;;;;;;5.37;4.97;;;14.10;99.90;;;;;;5083211;28;21015;-48
2021/05/16 08:57:50;;;;;;;5.17;4.77;;;14.20;99.90;;;;;;5080009;28;20279;-48
2021/05/16 09:00:19;;;;;;;5.83;5.37;;;14.30;99.90;;;;;;5066709;28;20198;-44
2021/05/16 09:03:09;;;;;;;5.77;4.97;;;14.50;99.90;;;;;;5080762;28;20228;-51
2021/05/16 09:05:38;;;;;;;5.50;5.10;;;14.50;99.90;;;;;;5076828;28;20278;-50
2021/05/16 09:08:08;;;;;;;6.13;5.53;;;14.50;99.90;;;;;;5081706;28;20198;-49
2021/05/16 09:10:34;;;;;;;6.20;5.70;;;14.40;99.90;;;;;;5084120;28;20200;-49
2021/05/16 09:13:09;;;;;;;5.63;5.23;;;14.40;99.90;;;;;;5078938;28;20762;-45
2021/05/16 09:15:35;;;;;;;7.70;5.73;;;14.30;99.90;;;;;;5066049;28;20647;-48
2021/05/16 09:18:01;;;;;;;5.60;5.10;;;14.10;99.90;;;;;;5082653;28;20261;-51
2021/05/16 09:20:28;;;;;;;6.57;5.80;;;14.20;99.90;;;;;;5076692;28;20210;-48
2021/05/16 09:22:54;;;;;;;7.17;6.43;;;14.30;99.90;;;;;;5084743;28;20194;-46
2021/05/16 09:25:23;;;;;;;6.27;5.77;;;14.40;99.90;;;;;;5081839;28;20259;-45
2021/05/16 09:27:52;;;;;;;6.10;5.60;;;14.60;99.90;;;;;;5079641;28;20398;-47
2021/05/16 09:30:32;;;;;;;6.33;5.77;;;14.60;99.90;;;;;;5066725;28;20300;-47
2021/05/16 09:33:03;;;;;;;6.00;5.50;;;14.50;99.90;;;;;;5083529;28;20221;-47
2021/05/16 09:35:36;;;;;;;5.23;4.73;;;14.50;99.90;;;;;;5077023;28;20356;-49
2021/05/16 09:38:06;;;;;;;3.80;3.53;;;14.80;99.90;;;;;;5082866;28;20211;-49
2021/05/16 09:40:37;;;;;;;4.17;3.77;;;14.90;99.90;;;;;;5083777;28;20190;-50
2021/05/16 09:43:09;;;;;;;4.73;4.37;;;15.10;99.90;;;;;;5070669;28;20678;-48
2021/05/16 09:45:53;;;;;;;5.43;4.93;;;15.10;99.90;;;;;;5070369;28;20230;-45
2021/05/16 09:48:28;;;;;;;5.53;5.00;;;14.80;99.90;;;;;;5081263;28;20939;-47
2021/05/16 09:51:14;;;;;;;5.30;4.87;;;14.60;99.90;;;;;;5074974;28;20205;-49
2021/05/16 09:53:58;;;;;;;6.50;4.93;;;14.30;99.90;;;;;;5084715;28;20689;-46
2021/05/16 09:56:26;;;;;;;5.03;4.53;;;14.20;99.90;;;;;;5082547;28;20197;-49
2021/05/16 09:58:54;;;;;;;6.13;5.07;;;14.10;99.90;;;;;;5079821;28;20562;-50
2021/05/16 10:01:22;;;;;;;5.10;4.60;;;14.20;99.90;;;;;;5068298;28;20198;-48
2021/05/16 10:03:49;;;;;;;5.57;4.50;;;14.10;99.90;;;;;;5084955;28;20213;-50
2021/05/16 10:06:17;;;;;;;3.50;3.20;;;14.20;99.90;;;;;;5075054;28;20823;-45
2021/05/16 10:08:47;;;;;;;2.80;2.60;;;14.20;99.90;;;;;;5084055;28;20216;-48
2021/05/16 10:11:15;;;;;;;3.00;2.80;;;14.20;99.90;;;;;;5079726;28;20186;-46
2021/05/16 10:13:45;;;;;;;3.57;3.27;;;14.40;99.90;;;;;;5080623;28;20194;-47
2021/05/16 10:16:15;;;;;;;4.33;2.87;;;14.60;99.90;;;;;;5067023;28;20210;-50
2021/05/16 10:18:43;;;;;;;3.93;3.20;;;14.70;99.90;;;;;;5083546;28;20202;-51
2021/05/16 10:21:09;;;;;;;2.90;2.70;;;14.80;99.90;;;;;;5075739;28;20194;-50
2021/05/16 10:23:38;;;;;;;4.70;4.27;;;15.00;99.90;;;;;;5084071;28;20229;-49
2021/05/16 10:26:22;;;;;;;6.70;4.53;;;15.20;99.90;;;;;;5082074;28;20224;-51
2021/05/16 10:28:57;;;;;;;5.33;4.70;;;15.40;99.90;;;;;;5083463;28;20710;-48
2021/05/16 10:31:43;;;;;;;4.37;3.53;;;15.50;99.90;;;;;;5062990;28;20213;-46
2021/05/16 10:34:41;;;;;;;7.13;5.17;;;15.60;99.90;;;;;;5080299;28;20202;-49
2021/05/16 10:37:10;;;;;;;5.73;4.93;;;15.50;99.90;;;;;;5076689;28;20598;-48
2021/05/16 10:39:50;;;;;;;5.60;4.63;;;15.20;99.90;;;;;;5073529;28;20310;-51
2021/05/16 10:42:19;;;;;;;4.97;4.50;;;15.20;99.90;;;;;;5073672;28;20281;-49
2021/05/16 10:45:09;;;;;;;4.43;4.10;;;15.20;99.90;;;;;;5079512;28;20769;-50
2021/05/16 10:47:53;;;;;;;5.13;4.23;;;15.20;99.90;;;;;;5069917;28;20429;-51
2021/05/16 10:50:38;;;;;;;5.10;4.67;;;15.30;99.90;;;;;;5079417;28;20213;-47
2021/05/16 10:53:06;;;;;;;6.93;4.80;;;15.20;99.90;;;;;;5078739;28;20255;-45
2021/05/16 10:55:34;;;;;;;7.80;5.00;;;15.20;99.90;;;;;;5080779;28;20221;-48
2021/05/16 10:58:02;;;;;;;5.07;4.53;;;15.30;99.90;;;;;;5081498;28;20190;-45
2021/05/16 11:00:30;;;;;;;5.87;5.07;;;15.20;99.90;;;;;;5076722;28;20288;-51
2021/05/16 11:03:01;;;;;;;4.77;4.37;;;15.00;99.90;;;;;;5068588;28;20218;-48
2021/05/16 11:05:54;;;;;;;7.13;4.60;;;15.00;99.90;;;;;;5081757;28;20220;-48
2021/05/16 11:08:54;;;;;;;4.83;3.90;;;14.90;99.90;;;;;;5079679;28;20193;-51
2021/05/16 11:11:28;;;;;;;4.73;4.00;;;14.80;99.90;;;;;;5071779;28;20838;-47
2021/05/16 11:13:55;;;;;;;4.33;3.30;;;14.50;99.90;;;;;;5082583;28;20205;-47
2021/05/16 11:16:21;;;;;;;4.03;3.33;;;14.30;99.90;;;;;;5076254;28;20228;-46
2021/05/16 11:18:47;;;;;;;4.77;3.10;;;14.00;99.90;;;;;;5068515;28;20198;-46
2021/05/16 11:21:14;;;;;;;3.13;2.83;;;13.80;99.90;;;;;;5079263;28;20334;-44
2021/05/16 11:23:44;;;;;;;3.47;3.10;;;13.70;99.90;;;;;;5083111;28;20558;-46
2021/05/16 11:26:13;;;;;;;6.60;2.60;;;13.50;99.90;;;;;;5069516;28;20206;-49
2021/05/16 11:28:45;;;;;;;2.20;1.97;;;13.30;99.90;;;;;;5082306;28;20198;-52
2021/05/16 11:31:12;;;;;;;3.97;1.97;;;13.10;99.90;;;;;;5074765;28;20202;-48
2021/05/16 11:33:40;;;;;;;3.73;2.40;;;13.10;99.90;;;;;;5082668;28;20202;-45
2021/05/16 11:36:08;;;;;;;3.40;2.80;;;13.20;99.90;;;;;;5066091;28;20206;-50
2021/05/16 11:38:36;;;;;;;5.40;3.37;;;13.30;99.90;;;;;;5081444;28;20202;-48
2021/05/16 11:41:03;;;;;;;4.40;2.63;;;13.40;99.90;;;;;;5071265;28;20201;-48
2021/05/16 11:43:31;;;;;;;4.97;3.00;;;13.60;99.90;;;;;;5081168;28;20262;-48
2021/05/16 11:45:59;;;;;;;4.17;3.23;;;13.80;99.90;;;;;;5076057;28;20294;-47
2021/05/16 11:48:30;;;;;;;5.57;3.10;;;13.90;99.90;;;;;;5080398;28;20968;-48
2021/05/16 11:51:03;;;;;;;6.40;3.60;;;14.00;99.90;;;;;;5062580;28;20671;-50
2021/05/16 11:53:30;;;;;;;5.27;3.87;;;14.10;99.90;;;;;;5081330;28;20182;-49
2021/05/16 11:56:00;;;;;;;5.17;4.37;;;14.10;99.90;;;;;;5082055;28;20210;-50
2021/05/16 11:58:26;;;;;;;5.43;4.20;;;14.20;99.90;;;;;;5072425;28;20229;-48
2021/05/16 12:00:53;;;;;;;3.53;3.07;;;14.40;99.90;;;;;;5078545;28;20206;-51
2021/05/16 12:03:20;;;;;;;3.77;2.87;;;14.60;99.90;;;;;;5066260;28;20205;-47
2021/05/16 12:05:47;;;;;;;4.07;2.80;;;14.70;99.90;;;;;;5067949;28;20582;-47
2021/05/16 12:08:18;;;;;;;3.53;2.33;;;14.80;99.90;;;;;;5078593;28;20295;-46
2021/05/16 12:10:45;;;;;;;5.97;3.10;;;14.90;99.90;;;;;;5082463;28;20272;-47
2021/05/16 12:13:22;;;;;;;4.00;3.60;;;15.00;99.90;;;;;;5069223;28;20204;-50
2021/05/16 12:15:49;;;;;;;5.30;3.90;;;15.00;99.90;;;;;;5081264;28;20311;-47
2021/05/16 12:18:22;;;;;;;5.20;3.30;;;15.00;99.90;;;;;;5062341;28;20224;-51
2021/05/16 12:20:58;;;;;;;7.03;4.67;;;15.10;99.90;;;;;;5067594;28;20209;-49
2021/05/16 12:23:24;;;;;;;6.20;4.37;;;15.00;99.90;;;;;;5077057;28;20677;-48
2021/05/16 12:25:51;;;;;;;5.17;4.63;;;15.10;99.90;;;;;;5082184;28;20279;-50
2021/05/16 12:28:17;;;;;;;5.63;3.70;;;15.30;99.90;;;;;;5079692;28;20216;-50
2021/05/16 12:30:43;;;;;;;4.13;2.40;;;15.20;99.90;;;;;;5082049;28;20243;-50
2021/05/16 12:33:10;;;;;;;3.73;1.87;;;15.30;99.90;;;;;;5081070;28;20787;-46
2021/05/16 12:35:37;;;;;;;1.73;1.60;;;15.40;99.90;;;;;;5081238;28;20694;-48
2021/05/16 12:38:10;;;;;;;2.03;1.70;;;15.50;99.90;;;;;;5072153;28;20478;-47
2021/05/16 12:40:36;;;;;;;3.47;1.70;;;15.70;99.90;;;;;;5080149;28;20205;-49
2021/05/16 12:43:04;;;;;;;2.50;1.50;;;16.00;99.90;;;;;;5071628;28;20197;-46
2021/05/16 12:45:31;;;;;;;5.03;2.30;;;16.20;99.90;;;;;;5085604;28;20236;-47
2021/05/16 12:47:58;;;;;;;4.97;2.40;;;16.30;99.90;;;;;;5082961;28;20194;-46
2021/05/16 12:50:30;;;;;;;4.97;2.63;;;16.40;99.90;;;;;;5081124;28;20222;-47
2021/05/16 12:53:19;;;;;;;3.40;2.80;;;16.60;99.90;;;;;;5057423;28;20206;-47
2021/05/16 12:55:46;;;;;;;3.47;2.50;;;16.80;99.90;;;;;;5078317;28;20226;-52